sensor_id;sensor_type;location;lat;lon;timestamp;P1;durP1;ratioP1;P2;durP2;ratioP2
26488;SDS011;14169;43.684;10.484;2022-08-01T00:00:25;5.47;;;3.60;;
26488;SDS011;14169;43.684;10.484;2022-08-01T00:02:50;2.97;;;2.70;;
26488;SDS011;14169;43.684;10.484;2022-08-01T00:05:16;3.58;;;2.33;;
26488;SDS011;14169;43.684;10.484;2022-08-01T00:07:41;3.45;;;2.88;;
26488;SDS011;14169;43.684;10.484;2022-08-01T00:10:08;4.68;;;2.45;;
26488;SDS011;14169;43.684;10.484;2022-08-01T00:12:35;4.38;;;2.83;;
26488;SDS011;14169;43.684;10.484;2022-08-01T00:15:02;3.42;;;2.78;;
26488;SDS011;14169;43.684;10.484;2022-08-01T00:17:30;2.90;;;2.60;;
26488;SDS011;14169;43.684;10.484;2022-08-01T00:19:56;2.80;;;2.60;;
26488;SDS011;14169;43.684;10.484;2022-08-01T00:22:21;2.70;;;2.50;;
26488;SDS011;14169;43.684;10.484;2022-08-01T00:24:47;2.92;;;2.72;;
26488;SDS011;14169;43.684;10.484;2022-08-01T00:27:12;2.90;;;2.60;;
26488;SDS011;14169;43.684;10.484;2022-08-01T00:29:38;7.18;;;2.20;;
26488;SDS011;14169;43.684;10.484;2022-08-01T00:32:03;3.47;;;2.03;;
26488;SDS011;14169;43.684;10.484;2022-08-01T00:34:29;2.90;;;2.28;;
26488;SDS011;14169;43.684;10.484;2022-08-01T00:36:54;3.67;;;2.03;;
26488;SDS011;14169;43.684;10.484;2022-08-01T00:39:19;2.08;;;1.88;;
26488;SDS011;14169;43.684;10.484;2022-08-01T00:41:45;2.55;;;1.90;;
26488;SDS011;14169;43.684;10.484;2022-08-01T00:44:10;5.47;;;2.30;;
26488;SDS011;14169;43.684;10.484;2022-08-01T00:46:36;4.22;;;2.25;;
26488;SDS011;14169;43.684;10.484;2022-08-01T00:49:02;4.07;;;2.00;;
26488;SDS011;14169;43.684;10.484;2022-08-01T00:51:28;3.47;;;1.80;;
26488;SDS011;14169;43.684;10.484;2022-08-01T00:53:53;2.60;;;1.90;;
26488;SDS011;14169;43.684;10.484;2022-08-01T00:56:20;3.35;;;1.90;;
26488;SDS011;14169;43.684;10.484;2022-08-01T00:58:46;2.33;;;1.80;;
26488;SDS011;14169;43.684;10.484;2022-08-01T01:01:12;2.65;;;2.00;;
26488;SDS011;14169;43.684;10.484;2022-08-01T01:03:38;4.15;;;2.03;;
26488;SDS011;14169;43.684;10.484;2022-08-01T01:08:46;2.55;;;2.03;;
26488;SDS011;14169;43.684;10.484;2022-08-01T01:11:25;4.38;;;2.03;;
26488;SDS011;14169;43.684;10.484;2022-08-01T01:13:54;3.35;;;2.20;;
26488;SDS011;14169;43.684;10.484;2022-08-01T01:16:25;4.03;;;2.28;;
26488;SDS011;14169;43.684;10.484;2022-08-01T01:18:55;2.55;;;1.80;;
26488;SDS011;14169;43.684;10.484;2022-08-01T01:27:45;2.30;;;2.10;;
26488;SDS011;14169;43.684;10.484;2022-08-01T01:30:27;3.10;;;2.70;;
26488;SDS011;14169;43.684;10.484;2022-08-01T01:32:55;2.13;;;2.00;;
26488;SDS011;14169;43.684;10.484;2022-08-01T01:35:27;2.30;;;2.07;;
26488;SDS011;14169;43.684;10.484;2022-08-01T01:37:58;5.45;;;2.40;;
26488;SDS011;14169;43.684;10.484;2022-08-01T01:40:29;3.15;;;2.85;;
26488;SDS011;14169;43.684;10.484;2022-08-01T01:42:55;3.30;;;3.00;;
26488;SDS011;14169;43.684;10.484;2022-08-01T01:45:23;3.40;;;3.00;;
26488;SDS011;14169;43.684;10.484;2022-08-01T01:47:49;5.82;;;2.72;;
26488;SDS011;14169;43.684;10.484;2022-08-01T01:50:15;3.85;;;2.63;;
26488;SDS011;14169;43.684;10.484;2022-08-01T01:52:44;3.00;;;2.72;;
26488;SDS011;14169;43.684;10.484;2022-08-01T01:55:11;5.32;;;2.90;;
26488;SDS011;14169;43.684;10.484;2022-08-01T01:57:40;3.70;;;3.05;;
26488;SDS011;14169;43.684;10.484;2022-08-01T02:00:07;3.22;;;2.60;;
26488;SDS011;14169;43.684;10.484;2022-08-01T02:02:36;3.28;;;2.85;;
26488;SDS011;14169;43.684;10.484;2022-08-01T02:05:02;3.22;;;2.55;;
26488;SDS011;14169;43.684;10.484;2022-08-01T02:07:29;4.32;;;2.60;;
26488;SDS011;14169;43.684;10.484;2022-08-01T02:09:55;4.75;;;2.20;;
26488;SDS011;14169;43.684;10.484;2022-08-01T02:12:22;8.75;;;3.00;;
26488;SDS011;14169;43.684;10.484;2022-08-01T02:14:49;4.28;;;3.17;;
26488;SDS011;14169;43.684;10.484;2022-08-01T02:17:18;15.85;;;3.10;;
26488;SDS011;14169;43.684;10.484;2022-08-01T02:19:45;3.13;;;2.40;;
26488;SDS011;14169;43.684;10.484;2022-08-01T02:25:06;4.05;;;3.00;;
26488;SDS011;14169;43.684;10.484;2022-08-01T02:30:31;3.42;;;3.13;;
26488;SDS011;14169;43.684;10.484;2022-08-01T02:35:32;2.50;;;2.30;;
26488;SDS011;14169;43.684;10.484;2022-08-01T02:38:01;6.53;;;2.95;;
26488;SDS011;14169;43.684;10.484;2022-08-01T02:40:31;4.43;;;2.67;;
26488;SDS011;14169;43.684;10.484;2022-08-01T02:42:59;4.13;;;2.65;;
26488;SDS011;14169;43.684;10.484;2022-08-01T02:45:27;3.83;;;2.50;;
26488;SDS011;14169;43.684;10.484;2022-08-01T02:47:55;3.53;;;2.85;;
26488;SDS011;14169;43.684;10.484;2022-08-01T02:50:24;3.38;;;2.55;;
26488;SDS011;14169;43.684;10.484;2022-08-01T02:52:51;6.28;;;2.83;;
26488;SDS011;14169;43.684;10.484;2022-08-01T02:55:18;3.65;;;2.65;;
26488;SDS011;14169;43.684;10.484;2022-08-01T02:57:45;3.38;;;3.08;;
26488;SDS011;14169;43.684;10.484;2022-08-01T03:00:13;4.15;;;2.50;;
26488;SDS011;14169;43.684;10.484;2022-08-01T03:02:40;3.47;;;2.80;;
26488;SDS011;14169;43.684;10.484;2022-08-01T03:05:08;3.63;;;3.03;;
26488;SDS011;14169;43.684;10.484;2022-08-01T03:07:35;7.88;;;2.70;;
26488;SDS011;14169;43.684;10.484;2022-08-01T03:10:01;2.63;;;2.40;;
26488;SDS011;14169;43.684;10.484;2022-08-01T03:12:27;4.30;;;3.10;;
26488;SDS011;14169;43.684;10.484;2022-08-01T03:14:55;3.20;;;2.90;;
26488;SDS011;14169;43.684;10.484;2022-08-01T03:17:23;2.83;;;2.63;;
26488;SDS011;14169;43.684;10.484;2022-08-01T03:19:51;3.05;;;2.53;;
26488;SDS011;14169;43.684;10.484;2022-08-01T03:22:17;2.85;;;2.50;;
26488;SDS011;14169;43.684;10.484;2022-08-01T03:24:47;5.63;;;2.85;;
26488;SDS011;14169;43.684;10.484;2022-08-01T03:27:17;3.83;;;3.15;;
26488;SDS011;14169;43.684;10.484;2022-08-01T03:29:44;3.45;;;2.80;;
26488;SDS011;14169;43.684;10.484;2022-08-01T03:32:10;5.88;;;2.78;;
26488;SDS011;14169;43.684;10.484;2022-08-01T03:34:37;5.47;;;2.85;;
26488;SDS011;14169;43.684;10.484;2022-08-01T03:37:06;3.25;;;2.95;;
26488;SDS011;14169;43.684;10.484;2022-08-01T03:39:33;4.10;;;2.58;;
26488;SDS011;14169;43.684;10.484;2022-08-01T03:42:12;3.78;;;3.08;;
26488;SDS011;14169;43.684;10.484;2022-08-01T03:44:42;2.88;;;2.58;;
26488;SDS011;14169;43.684;10.484;2022-08-01T03:47:19;3.80;;;2.92;;
26488;SDS011;14169;43.684;10.484;2022-08-01T03:49:50;5.13;;;2.88;;
26488;SDS011;14169;43.684;10.484;2022-08-01T03:52:17;3.10;;;2.50;;
26488;SDS011;14169;43.684;10.484;2022-08-01T03:54:46;3.83;;;2.80;;
26488;SDS011;14169;43.684;10.484;2022-08-01T03:57:12;3.28;;;2.55;;
26488;SDS011;14169;43.684;10.484;2022-08-01T03:59:39;3.55;;;3.25;;
26488;SDS011;14169;43.684;10.484;2022-08-01T04:02:06;3.67;;;2.72;;
26488;SDS011;14169;43.684;10.484;2022-08-01T04:04:32;4.35;;;2.85;;
26488;SDS011;14169;43.684;10.484;2022-08-01T04:06:57;3.47;;;2.83;;
26488;SDS011;14169;43.684;10.484;2022-08-01T04:09:29;2.65;;;2.35;;
26488;SDS011;14169;43.684;10.484;2022-08-01T04:11:54;5.05;;;2.65;;
26488;SDS011;14169;43.684;10.484;2022-08-01T04:14:20;3.03;;;2.60;;
26488;SDS011;14169;43.684;10.484;2022-08-01T04:16:45;2.80;;;2.40;;
26488;SDS011;14169;43.684;10.484;2022-08-01T04:19:11;4.15;;;2.95;;
26488;SDS011;14169;43.684;10.484;2022-08-01T04:21:36;5.00;;;3.72;;
26488;SDS011;14169;43.684;10.484;2022-08-01T04:24:04;7.22;;;3.38;;
26488;SDS011;14169;43.684;10.484;2022-08-01T04:26:34;3.95;;;2.70;;
26488;SDS011;14169;43.684;10.484;2022-08-01T04:29:02;3.53;;;2.75;;
26488;SDS011;14169;43.684;10.484;2022-08-01T04:31:31;3.72;;;3.38;;
26488;SDS011;14169;43.684;10.484;2022-08-01T04:33:58;5.40;;;2.40;;
26488;SDS011;14169;43.684;10.484;2022-08-01T04:36:26;6.53;;;3.67;;
26488;SDS011;14169;43.684;10.484;2022-08-01T04:38:55;3.95;;;2.70;;
26488;SDS011;14169;43.684;10.484;2022-08-01T04:41:24;4.38;;;3.08;;
26488;SDS011;14169;43.684;10.484;2022-08-01T04:43:50;3.55;;;2.80;;
26488;SDS011;14169;43.684;10.484;2022-08-01T04:46:17;3.83;;;3.30;;
26488;SDS011;14169;43.684;10.484;2022-08-01T04:48:43;3.70;;;2.70;;
26488;SDS011;14169;43.684;10.484;2022-08-01T04:51:16;5.22;;;2.95;;
26488;SDS011;14169;43.684;10.484;2022-08-01T04:53:43;3.40;;;2.50;;
26488;SDS011;14169;43.684;10.484;2022-08-01T04:56:10;4.03;;;3.47;;
26488;SDS011;14169;43.684;10.484;2022-08-01T04:58:38;3.30;;;2.92;;
26488;SDS011;14169;43.684;10.484;2022-08-01T05:01:05;4.68;;;2.88;;
26488;SDS011;14169;43.684;10.484;2022-08-01T05:03:30;4.72;;;2.95;;
26488;SDS011;14169;43.684;10.484;2022-08-01T05:05:56;3.75;;;3.42;;
26488;SDS011;14169;43.684;10.484;2022-08-01T05:08:21;5.35;;;2.85;;
26488;SDS011;14169;43.684;10.484;2022-08-01T05:10:46;4.72;;;3.30;;
26488;SDS011;14169;43.684;10.484;2022-08-01T05:13:12;5.05;;;3.10;;
26488;SDS011;14169;43.684;10.484;2022-08-01T05:15:37;8.38;;;3.08;;
26488;SDS011;14169;43.684;10.484;2022-08-01T05:18:03;4.05;;;3.03;;
26488;SDS011;14169;43.684;10.484;2022-08-01T05:20:28;4.30;;;2.67;;
26488;SDS011;14169;43.684;10.484;2022-08-01T05:22:54;3.67;;;2.78;;
26488;SDS011;14169;43.684;10.484;2022-08-01T05:25:19;6.43;;;3.10;;
26488;SDS011;14169;43.684;10.484;2022-08-01T05:27:45;5.68;;;3.42;;
26488;SDS011;14169;43.684;10.484;2022-08-01T05:30:10;4.97;;;2.97;;
26488;SDS011;14169;43.684;10.484;2022-08-01T05:32:36;4.32;;;3.03;;
26488;SDS011;14169;43.684;10.484;2022-08-01T05:35:02;5.47;;;3.05;;
26488;SDS011;14169;43.684;10.484;2022-08-01T05:37:29;7.57;;;2.83;;
26488;SDS011;14169;43.684;10.484;2022-08-01T05:39:54;3.80;;;3.10;;
26488;SDS011;14169;43.684;10.484;2022-08-01T05:42:20;6.13;;;3.00;;
26488;SDS011;14169;43.684;10.484;2022-08-01T05:44:45;4.35;;;3.22;;
26488;SDS011;14169;43.684;10.484;2022-08-01T05:47:12;4.28;;;3.33;;
26488;SDS011;14169;43.684;10.484;2022-08-01T05:49:37;3.30;;;2.65;;
26488;SDS011;14169;43.684;10.484;2022-08-01T05:52:03;4.20;;;2.60;;
26488;SDS011;14169;43.684;10.484;2022-08-01T05:54:30;3.03;;;2.70;;
26488;SDS011;14169;43.684;10.484;2022-08-01T05:56:55;3.10;;;2.42;;
26488;SDS011;14169;43.684;10.484;2022-08-01T05:59:24;3.60;;;2.75;;
26488;SDS011;14169;43.684;10.484;2022-08-01T06:01:50;14.07;;;4.10;;
26488;SDS011;14169;43.684;10.484;2022-08-01T06:04:15;14.30;;;3.22;;
26488;SDS011;14169;43.684;10.484;2022-08-01T06:06:43;13.95;;;3.63;;
26488;SDS011;14169;43.684;10.484;2022-08-01T06:09:08;3.42;;;2.55;;
26488;SDS011;14169;43.684;10.484;2022-08-01T06:11:34;7.95;;;2.83;;
26488;SDS011;14169;43.684;10.484;2022-08-01T06:13:59;6.55;;;3.10;;
26488;SDS011;14169;43.684;10.484;2022-08-01T06:16:25;6.32;;;2.97;;
26488;SDS011;14169;43.684;10.484;2022-08-01T06:18:50;11.45;;;4.75;;
26488;SDS011;14169;43.684;10.484;2022-08-01T06:21:15;4.38;;;2.78;;
26488;SDS011;14169;43.684;10.484;2022-08-01T06:23:41;3.58;;;2.38;;
26488;SDS011;14169;43.684;10.484;2022-08-01T06:26:07;4.82;;;2.70;;
26488;SDS011;14169;43.684;10.484;2022-08-01T06:28:33;6.13;;;3.00;;
26488;SDS011;14169;43.684;10.484;2022-08-01T06:30:59;4.65;;;2.25;;
26488;SDS011;14169;43.684;10.484;2022-08-01T06:33:25;4.57;;;2.50;;
26488;SDS011;14169;43.684;10.484;2022-08-01T06:35:51;12.55;;;3.45;;
26488;SDS011;14169;43.684;10.484;2022-08-01T06:38:17;5.35;;;2.83;;
26488;SDS011;14169;43.684;10.484;2022-08-01T06:40:42;3.85;;;2.88;;
26488;SDS011;14169;43.684;10.484;2022-08-01T06:43:08;6.28;;;3.25;;
26488;SDS011;14169;43.684;10.484;2022-08-01T06:45:35;3.25;;;2.10;;
26488;SDS011;14169;43.684;10.484;2022-08-01T06:48:01;5.22;;;2.80;;
26488;SDS011;14169;43.684;10.484;2022-08-01T06:50:27;4.10;;;2.40;;
26488;SDS011;14169;43.684;10.484;2022-08-01T06:52:52;3.63;;;2.33;;
26488;SDS011;14169;43.684;10.484;2022-08-01T06:55:18;5.53;;;2.95;;
26488;SDS011;14169;43.684;10.484;2022-08-01T06:57:51;4.57;;;2.53;;
26488;SDS011;14169;43.684;10.484;2022-08-01T07:00:20;5.50;;;1.95;;
26488;SDS011;14169;43.684;10.484;2022-08-01T07:02:51;3.00;;;2.45;;
26488;SDS011;14169;43.684;10.484;2022-08-01T07:05:18;14.35;;;2.63;;
26488;SDS011;14169;43.684;10.484;2022-08-01T07:07:44;9.95;;;2.42;;
26488;SDS011;14169;43.684;10.484;2022-08-01T07:10:09;6.57;;;2.42;;
26488;SDS011;14169;43.684;10.484;2022-08-01T07:12:35;7.10;;;2.75;;
26488;SDS011;14169;43.684;10.484;2022-08-01T07:15:06;3.15;;;2.40;;
26488;SDS011;14169;43.684;10.484;2022-08-01T07:17:35;6.50;;;1.98;;
26488;SDS011;14169;43.684;10.484;2022-08-01T07:20:02;8.10;;;2.28;;
26488;SDS011;14169;43.684;10.484;2022-08-01T07:22:28;13.55;;;2.05;;
26488;SDS011;14169;43.684;10.484;2022-08-01T07:24:53;2.83;;;1.58;;
26488;SDS011;14169;43.684;10.484;2022-08-01T07:27:19;3.05;;;2.00;;
26488;SDS011;14169;43.684;10.484;2022-08-01T07:29:44;2.08;;;1.88;;
26488;SDS011;14169;43.684;10.484;2022-08-01T07:32:10;2.83;;;1.45;;
26488;SDS011;14169;43.684;10.484;2022-08-01T07:34:35;2.22;;;1.20;;
26488;SDS011;14169;43.684;10.484;2022-08-01T07:37:01;3.10;;;2.05;;
26488;SDS011;14169;43.684;10.484;2022-08-01T07:39:27;15.73;;;1.60;;
26488;SDS011;14169;43.684;10.484;2022-08-01T07:41:52;2.92;;;1.40;;
26488;SDS011;14169;43.684;10.484;2022-08-01T07:44:17;1.65;;;1.38;;
26488;SDS011;14169;43.684;10.484;2022-08-01T07:46:43;1.30;;;1.10;;
26488;SDS011;14169;43.684;10.484;2022-08-01T07:49:08;1.27;;;1.10;;
26488;SDS011;14169;43.684;10.484;2022-08-01T07:51:34;6.75;;;1.50;;
26488;SDS011;14169;43.684;10.484;2022-08-01T07:53:59;2.03;;;1.30;;
26488;SDS011;14169;43.684;10.484;2022-08-01T07:56:24;2.58;;;1.48;;
26488;SDS011;14169;43.684;10.484;2022-08-01T07:58:51;1.90;;;1.13;;
26488;SDS011;14169;43.684;10.484;2022-08-01T08:01:16;1.58;;;1.05;;
26488;SDS011;14169;43.684;10.484;2022-08-01T08:03:42;3.60;;;2.13;;
26488;SDS011;14169;43.684;10.484;2022-08-01T08:06:08;5.47;;;1.42;;
26488;SDS011;14169;43.684;10.484;2022-08-01T08:08:34;2.05;;;1.30;;
26488;SDS011;14169;43.684;10.484;2022-08-01T08:11:00;2.00;;;1.30;;
26488;SDS011;14169;43.684;10.484;2022-08-01T08:13:26;2.88;;;1.02;;
26488;SDS011;14169;43.684;10.484;2022-08-01T08:16:02;1.98;;;0.95;;
26488;SDS011;14169;43.684;10.484;2022-08-01T08:18:27;1.98;;;1.10;;
26488;SDS011;14169;43.684;10.484;2022-08-01T08:20:53;3.60;;;1.10;;
26488;SDS011;14169;43.684;10.484;2022-08-01T08:23:18;1.75;;;0.95;;
26488;SDS011;14169;43.684;10.484;2022-08-01T08:26:02;1.13;;;0.95;;
26488;SDS011;14169;43.684;10.484;2022-08-01T08:28:27;1.48;;;0.80;;
26488;SDS011;14169;43.684;10.484;2022-08-01T08:30:53;2.03;;;1.05;;
26488;SDS011;14169;43.684;10.484;2022-08-01T08:33:20;2.45;;;0.90;;
26488;SDS011;14169;43.684;10.484;2022-08-01T08:35:45;0.70;;;0.60;;
26488;SDS011;14169;43.684;10.484;2022-08-01T08:38:11;1.67;;;0.80;;
26488;SDS011;14169;43.684;10.484;2022-08-01T08:40:36;1.40;;;0.80;;
26488;SDS011;14169;43.684;10.484;2022-08-01T08:43:03;3.15;;;0.90;;
26488;SDS011;14169;43.684;10.484;2022-08-01T08:45:30;0.60;;;0.57;;
26488;SDS011;14169;43.684;10.484;2022-08-01T08:47:56;1.17;;;0.70;;
26488;SDS011;14169;43.684;10.484;2022-08-01T08:50:23;1.08;;;0.70;;
26488;SDS011;14169;43.684;10.484;2022-08-01T08:52:49;3.85;;;0.65;;
26488;SDS011;14169;43.684;10.484;2022-08-01T08:55:17;3.30;;;0.98;;
26488;SDS011;14169;43.684;10.484;2022-08-01T08:57:44;2.85;;;0.60;;
26488;SDS011;14169;43.684;10.484;2022-08-01T09:00:10;4.15;;;1.00;;
26488;SDS011;14169;43.684;10.484;2022-08-01T09:02:42;2.40;;;0.70;;
26488;SDS011;14169;43.684;10.484;2022-08-01T09:07:34;1.13;;;0.70;;
26488;SDS011;14169;43.684;10.484;2022-08-01T09:10:00;1.35;;;0.63;;
26488;SDS011;14169;43.684;10.484;2022-08-01T09:12:25;2.67;;;0.70;;
26488;SDS011;14169;43.684;10.484;2022-08-01T09:14:51;0.57;;;0.50;;
26488;SDS011;14169;43.684;10.484;2022-08-01T09:17:18;1.05;;;0.47;;
26488;SDS011;14169;43.684;10.484;2022-08-01T09:22:14;0.88;;;0.60;;
26488;SDS011;14169;43.684;10.484;2022-08-01T09:27:23;2.50;;;1.05;;
26488;SDS011;14169;43.684;10.484;2022-08-01T09:29:51;1.70;;;0.52;;
26488;SDS011;14169;43.684;10.484;2022-08-01T09:32:17;2.10;;;0.68;;
26488;SDS011;14169;43.684;10.484;2022-08-01T09:34:44;3.03;;;0.70;;
26488;SDS011;14169;43.684;10.484;2022-08-01T09:37:11;3.58;;;0.80;;
26488;SDS011;14169;43.684;10.484;2022-08-01T09:39:39;1.40;;;0.70;;
26488;SDS011;14169;43.684;10.484;2022-08-01T09:42:24;2.17;;;0.68;;
26488;SDS011;14169;43.684;10.484;2022-08-01T09:44:50;1.15;;;0.70;;
26488;SDS011;14169;43.684;10.484;2022-08-01T09:47:16;1.60;;;0.68;;
26488;SDS011;14169;43.684;10.484;2022-08-01T09:49:45;1.23;;;0.60;;
26488;SDS011;14169;43.684;10.484;2022-08-01T09:52:18;1.48;;;0.55;;
26488;SDS011;14169;43.684;10.484;2022-08-01T09:55:03;0.85;;;0.70;;
26488;SDS011;14169;43.684;10.484;2022-08-01T09:57:31;1.58;;;0.50;;
26488;SDS011;14169;43.684;10.484;2022-08-01T09:59:58;1.20;;;0.50;;
26488;SDS011;14169;43.684;10.484;2022-08-01T10:02:37;0.75;;;0.50;;
26488;SDS011;14169;43.684;10.484;2022-08-01T10:05:09;1.90;;;0.70;;
26488;SDS011;14169;43.684;10.484;2022-08-01T10:07:57;1.42;;;0.47;;
26488;SDS011;14169;43.684;10.484;2022-08-01T10:10:22;1.13;;;0.43;;
26488;SDS011;14169;43.684;10.484;2022-08-01T10:12:48;0.82;;;0.55;;
26488;SDS011;14169;43.684;10.484;2022-08-01T10:15:14;2.53;;;0.57;;
26488;SDS011;14169;43.684;10.484;2022-08-01T10:20:25;0.68;;;0.52;;
26488;SDS011;14169;43.684;10.484;2022-08-01T10:22:53;1.73;;;0.50;;
26488;SDS011;14169;43.684;10.484;2022-08-01T10:25:21;1.35;;;0.60;;
26488;SDS011;14169;43.684;10.484;2022-08-01T10:27:50;0.50;;;0.50;;
26488;SDS011;14169;43.684;10.484;2022-08-01T10:30:19;1.80;;;0.47;;
26488;SDS011;14169;43.684;10.484;2022-08-01T10:32:45;2.05;;;0.60;;
26488;SDS011;14169;43.684;10.484;2022-08-01T10:35:11;1.50;;;0.57;;
26488;SDS011;14169;43.684;10.484;2022-08-01T10:37:42;4.97;;;0.67;;
26488;SDS011;14169;43.684;10.484;2022-08-01T10:40:08;1.75;;;0.52;;
26488;SDS011;14169;43.684;10.484;2022-08-01T10:42:36;0.60;;;0.40;;
26488;SDS011;14169;43.684;10.484;2022-08-01T10:45:02;2.53;;;0.60;;
26488;SDS011;14169;43.684;10.484;2022-08-01T10:47:33;0.70;;;0.60;;
26488;SDS011;14169;43.684;10.484;2022-08-01T10:53:02;2.75;;;0.40;;
26488;SDS011;14169;43.684;10.484;2022-08-01T10:55:32;1.38;;;0.60;;
26488;SDS011;14169;43.684;10.484;2022-08-01T10:58:33;2.53;;;0.60;;
26488;SDS011;14169;43.684;10.484;2022-08-01T11:06:48;4.82;;;0.60;;
26488;SDS011;14169;43.684;10.484;2022-08-01T11:15:24;2.20;;;0.70;;
26488;SDS011;14169;43.684;10.484;2022-08-01T11:17:32;4.13;;;0.90;;
26488;SDS011;14169;43.684;10.484;2022-08-01T11:20:05;0.98;;;0.60;;
26488;SDS011;14169;43.684;10.484;2022-08-01T11:23:17;0.70;;;0.70;;
26488;SDS011;14169;43.684;10.484;2022-08-01T11:25:26;2.45;;;0.60;;
26488;SDS011;14169;43.684;10.484;2022-08-01T11:30:42;0.90;;;0.80;;
26488;SDS011;14169;43.684;10.484;2022-08-01T11:33:12;2.58;;;0.80;;
26488;SDS011;14169;43.684;10.484;2022-08-01T11:38:43;1.48;;;0.68;;
26488;SDS011;14169;43.684;10.484;2022-08-01T11:41:23;2.08;;;0.70;;
26488;SDS011;14169;43.684;10.484;2022-08-01T11:52:13;1.65;;;0.70;;
26488;SDS011;14169;43.684;10.484;2022-08-01T11:54:51;1.55;;;0.70;;
26488;SDS011;14169;43.684;10.484;2022-08-01T11:57:32;3.38;;;0.88;;
26488;SDS011;14169;43.684;10.484;2022-08-01T12:00:10;1.35;;;0.70;;
26488;SDS011;14169;43.684;10.484;2022-08-01T12:02:37;1.27;;;0.60;;
26488;SDS011;14169;43.684;10.484;2022-08-01T12:05:04;0.82;;;0.50;;
26488;SDS011;14169;43.684;10.484;2022-08-01T12:07:42;1.67;;;0.55;;
26488;SDS011;14169;43.684;10.484;2022-08-01T12:10:10;2.53;;;0.43;;
26488;SDS011;14169;43.684;10.484;2022-08-01T12:12:37;3.10;;;0.60;;
26488;SDS011;14169;43.684;10.484;2022-08-01T12:15:10;1.30;;;0.45;;
26488;SDS011;14169;43.684;10.484;2022-08-01T12:17:36;5.68;;;0.50;;
26488;SDS011;14169;43.684;10.484;2022-08-01T12:20:04;0.55;;;0.43;;
26488;SDS011;14169;43.684;10.484;2022-08-01T12:22:32;1.20;;;0.35;;
26488;SDS011;14169;43.684;10.484;2022-08-01T12:27:37;1.65;;;0.50;;
26488;SDS011;14169;43.684;10.484;2022-08-01T12:30:38;0.45;;;0.40;;
26488;SDS011;14169;43.684;10.484;2022-08-01T12:33:00;1.38;;;0.43;;
26488;SDS011;14169;43.684;10.484;2022-08-01T12:35:27;0.68;;;0.40;;
26488;SDS011;14169;43.684;10.484;2022-08-01T12:37:55;0.85;;;0.40;;
26488;SDS011;14169;43.684;10.484;2022-08-01T12:40:24;0.95;;;0.63;;
26488;SDS011;14169;43.684;10.484;2022-08-01T12:42:52;1.65;;;0.60;;
26488;SDS011;14169;43.684;10.484;2022-08-01T12:45:21;1.40;;;0.60;;
26488;SDS011;14169;43.684;10.484;2022-08-01T12:47:50;0.73;;;0.45;;
26488;SDS011;14169;43.684;10.484;2022-08-01T12:50:21;1.02;;;0.40;;
26488;SDS011;14169;43.684;10.484;2022-08-01T12:52:49;0.47;;;0.45;;
26488;SDS011;14169;43.684;10.484;2022-08-01T12:55:16;1.08;;;0.60;;
26488;SDS011;14169;43.684;10.484;2022-08-01T12:57:43;1.00;;;0.50;;
26488;SDS011;14169;43.684;10.484;2022-08-01T13:00:16;0.93;;;0.50;;
26488;SDS011;14169;43.684;10.484;2022-08-01T13:02:47;0.52;;;0.43;;
26488;SDS011;14169;43.684;10.484;2022-08-01T13:05:13;0.93;;;0.50;;
26488;SDS011;14169;43.684;10.484;2022-08-01T13:07:41;1.30;;;0.70;;
26488;SDS011;14169;43.684;10.484;2022-08-01T13:10:12;1.40;;;0.45;;
26488;SDS011;14169;43.684;10.484;2022-08-01T13:12:39;0.60;;;0.60;;
26488;SDS011;14169;43.684;10.484;2022-08-01T13:16:07;0.50;;;0.50;;
26488;SDS011;14169;43.684;10.484;2022-08-01T13:23:38;1.52;;;0.50;;
26488;SDS011;14169;43.684;10.484;2022-08-01T13:26:04;0.47;;;0.47;;
26488;SDS011;14169;43.684;10.484;2022-08-01T13:28:29;1.38;;;0.50;;
26488;SDS011;14169;43.684;10.484;2022-08-01T13:31:03;0.47;;;0.38;;
26488;SDS011;14169;43.684;10.484;2022-08-01T13:33:40;1.00;;;0.50;;
26488;SDS011;14169;43.684;10.484;2022-08-01T13:36:07;0.70;;;0.40;;
26488;SDS011;14169;43.684;10.484;2022-08-01T13:38:33;1.42;;;0.47;;
26488;SDS011;14169;43.684;10.484;2022-08-01T13:41:17;1.40;;;0.50;;
26488;SDS011;14169;43.684;10.484;2022-08-01T13:43:43;1.92;;;0.50;;
26488;SDS011;14169;43.684;10.484;2022-08-01T13:46:11;1.02;;;0.47;;
26488;SDS011;14169;43.684;10.484;2022-08-01T13:48:36;0.50;;;0.40;;
26488;SDS011;14169;43.684;10.484;2022-08-01T13:51:02;0.57;;;0.50;;
26488;SDS011;14169;43.684;10.484;2022-08-01T13:53:28;3.70;;;0.60;;
26488;SDS011;14169;43.684;10.484;2022-08-01T13:55:53;2.67;;;0.60;;
26488;SDS011;14169;43.684;10.484;2022-08-01T13:58:19;0.32;;;0.30;;
26488;SDS011;14169;43.684;10.484;2022-08-01T14:00:45;1.15;;;0.47;;
26488;SDS011;14169;43.684;10.484;2022-08-01T14:03:11;1.70;;;0.63;;
26488;SDS011;14169;43.684;10.484;2022-08-01T14:05:37;2.85;;;0.52;;
26488;SDS011;14169;43.684;10.484;2022-08-01T14:08:02;2.28;;;0.70;;
26488;SDS011;14169;43.684;10.484;2022-08-01T14:10:28;1.85;;;0.70;;
26488;SDS011;14169;43.684;10.484;2022-08-01T14:12:57;0.68;;;0.50;;
26488;SDS011;14169;43.684;10.484;2022-08-01T14:15:23;1.00;;;0.50;;
26488;SDS011;14169;43.684;10.484;2022-08-01T14:17:49;2.97;;;0.50;;
26488;SDS011;14169;43.684;10.484;2022-08-01T14:20:14;1.33;;;0.30;;
26488;SDS011;14169;43.684;10.484;2022-08-01T14:22:44;1.67;;;0.47;;
26488;SDS011;14169;43.684;10.484;2022-08-01T14:25:12;0.40;;;0.40;;
26488;SDS011;14169;43.684;10.484;2022-08-01T14:27:38;3.85;;;0.50;;
26488;SDS011;14169;43.684;10.484;2022-08-01T14:30:05;0.50;;;0.50;;
26488;SDS011;14169;43.684;10.484;2022-08-01T14:32:31;1.17;;;0.40;;
26488;SDS011;14169;43.684;10.484;2022-08-01T14:34:58;1.10;;;0.50;;
26488;SDS011;14169;43.684;10.484;2022-08-01T14:37:24;1.23;;;0.52;;
26488;SDS011;14169;43.684;10.484;2022-08-01T14:39:49;0.70;;;0.52;;
26488;SDS011;14169;43.684;10.484;2022-08-01T14:42:15;0.50;;;0.43;;
26488;SDS011;14169;43.684;10.484;2022-08-01T14:44:40;1.15;;;0.60;;
26488;SDS011;14169;43.684;10.484;2022-08-01T14:47:06;1.17;;;0.52;;
26488;SDS011;14169;43.684;10.484;2022-08-01T14:49:31;0.70;;;0.60;;
26488;SDS011;14169;43.684;10.484;2022-08-01T14:51:57;0.77;;;0.52;;
26488;SDS011;14169;43.684;10.484;2022-08-01T14:54:22;0.45;;;0.45;;
26488;SDS011;14169;43.684;10.484;2022-08-01T14:56:48;2.08;;;0.60;;
26488;SDS011;14169;43.684;10.484;2022-08-01T14:59:13;0.68;;;0.50;;
26488;SDS011;14169;43.684;10.484;2022-08-01T15:01:39;0.50;;;0.50;;
26488;SDS011;14169;43.684;10.484;2022-08-01T15:04:04;1.20;;;0.50;;
26488;SDS011;14169;43.684;10.484;2022-08-01T15:06:30;0.50;;;0.50;;
26488;SDS011;14169;43.684;10.484;2022-08-01T15:08:55;0.93;;;0.52;;
26488;SDS011;14169;43.684;10.484;2022-08-01T15:11:20;0.95;;;0.50;;
26488;SDS011;14169;43.684;10.484;2022-08-01T15:13:46;1.58;;;0.50;;
26488;SDS011;14169;43.684;10.484;2022-08-01T15:16:31;1.30;;;0.70;;
26488;SDS011;14169;43.684;10.484;2022-08-01T15:18:57;0.70;;;0.60;;
26488;SDS011;14169;43.684;10.484;2022-08-01T15:21:22;1.25;;;0.80;;
26488;SDS011;14169;43.684;10.484;2022-08-01T15:23:47;2.15;;;0.60;;
26488;SDS011;14169;43.684;10.484;2022-08-01T15:26:13;0.52;;;0.52;;
26488;SDS011;14169;43.684;10.484;2022-08-01T15:28:38;0.82;;;0.70;;
26488;SDS011;14169;43.684;10.484;2022-08-01T15:31:04;2.40;;;0.50;;
26488;SDS011;14169;43.684;10.484;2022-08-01T15:33:29;0.60;;;0.60;;
26488;SDS011;14169;43.684;10.484;2022-08-01T15:35:54;1.52;;;0.50;;
26488;SDS011;14169;43.684;10.484;2022-08-01T15:38:22;1.90;;;0.88;;
26488;SDS011;14169;43.684;10.484;2022-08-01T15:40:48;1.77;;;0.60;;